Time;durP1;ratioP1;P1;durP2;ratioP2;P2;SDS_P1;SDS_P2;PMS_P1;PMS_P2;Temp;Humidity;BMP_temperature;BMP_pressure;BME280_temperature;BME280_humidity;BME280_pressure;Samples;Min_cycle;Max_cycle;Signal;HPM_P1;HPM_P2
2021/03/13 00:01:41;;;;;;;3.67;0.90;;;;;;;;;;5156444;27;20034;-55
2021/03/13 00:04:21;;;;;;;0.60;0.40;;;;;;;;;;5051751;28;20041;-56
2021/03/13 00:06:48;;;;;;;;;;;;;;;;;;5037398;28;20103;-56
2021/03/13 00:09:40;;;;;;;0.87;0.43;;;;;;;;;;5128051;27;19945;-54
2021/03/13 00:15:43;;;;;;;1.60;0.37;;;;;;;;;;5092361;28;20039;-54
2021/03/13 00:21:50;;;;;;;2.13;0.47;;;;;;;;;;5137705;27;20072;-54
2021/03/13 00:24:22;;;;;;;0.63;0.30;;;;;;;;;;5159440;27;20030;-56
2021/03/13 00:27:04;;;;;;;0.67;0.33;;;;;;;;;;5159425;27;20511;-57
2021/03/13 00:29:37;;;;;;;2.03;0.67;;;;;;;;;;5159268;27;20023;-56
2021/03/13 00:32:29;;;;;;;;;;;;;;;;;;;;;
2021/03/13 00:35:13;;;;;;;1.87;0.57;;;;;;;;;;5102732;27;20114;-56
2021/03/13 00:37:46;;;;;;;0.50;0.30;;;;;;;;;;5160341;27;20022;-56
2021/03/13 00:40:21;;;;;;;0.93;0.10;;;;;;;;;;5159471;27;20022;-54
2021/03/13 00:43:23;;;;;;;0.80;0.40;;;;;;;;;;5141177;27;20063;-51
2021/03/13 00:45:54;;;;;;;0.73;0.33;;;;;;;;;;5159927;27;20353;-57
2021/03/13 00:52:05;;;;;;;1.80;0.93;;;;;;;;;;5158795;27;20031;-56
2021/03/13 00:54:54;;;;;;;1.10;0.40;;;;;;;;;;5159909;27;20333;-55
2021/03/13 00:57:47;;;;;;;2.10;0.43;;;;;;;;;;5159626;27;20110;-56
2021/03/13 01:00:40;;;;;;;;;;;;;;;;;;;;;
2021/03/13 01:03:09;;;;;;;2.17;0.70;;;;;;;;;;5159842;27;20082;-53
2021/03/13 01:05:40;;;;;;;1.47;0.37;;;;;;;;;;5158758;27;20038;-54
2021/03/13 01:11:22;;;;;;;2.83;0.55;;;;;;;;;;5155941;27;20090;-55
2021/03/13 01:13:51;;;;;;;0.43;0.20;;;;;;;;;;5159749;27;20031;-54
2021/03/13 01:16:36;;;;;;;;;;;;;;;;;;;;;
2021/03/13 01:19:09;;;;;;;0.77;0.30;;;;;;;;;;5158556;27;20101;-55
2021/03/13 01:21:57;;;;;;;0.57;0.23;;;;;;;;;;5158518;27;20479;-54
2021/03/13 01:24:41;;;;;;;0.70;0.27;;;;;;;;;;5159537;27;20403;-54
2021/03/13 01:27:24;;;;;;;4.50;0.30;;;;;;;;;;5138670;27;20091;-57
2021/03/13 01:29:55;;;;;;;1.10;0.37;;;;;;;;;;5159184;27;20453;-55
2021/03/13 01:32:34;;;;;;;0.17;0.13;;;;;;;;;;5140186;27;20476;-55
2021/03/13 01:35:32;;;;;;;0.20;0.10;;;;;;;;;;5159374;27;20107;-56
2021/03/13 01:38:30;;;;;;;1.73;0.40;;;;;;;;;;5159094;27;20452;-56
2021/03/13 01:41:10;;;;;;;;;;;;;;;;;;;;;
2021/03/13 01:43:45;;;;;;;5.13;0.23;;;;;;;;;;5154796;27;20095;-54
2021/03/13 01:46:36;;;;;;;1.23;0.30;;;;;;;;;;5140323;27;20372;-56
2021/03/13 01:49:47;;;;;;;;;;;;;;;;;;;;;
2021/03/13 01:52:52;;;;;;;1.20;0.50;;;;;;;;;;5158328;27;20106;-57
2021/03/13 01:58:28;;;;;;;1.53;0.50;;;;;;;;;;5155129;27;20042;-56
2021/03/13 02:01:15;;;;;;;2.73;0.67;;;;;;;;;;5158622;27;20045;-57
2021/03/13 02:03:47;;;;;;;2.77;0.67;;;;;;;;;;5155277;27;20031;-57
2021/03/13 02:06:26;;;;;;;1.03;0.57;;;;;;;;;;5157922;27;20549;-54
2021/03/13 02:09:20;;;;;;;1.17;0.60;;;;;;;;;;5139412;27;20523;-56
2021/03/13 02:12:00;;;;;;;1.70;0.37;;;;;;;;;;5158204;27;20025;-56
2021/03/13 02:14:50;;;;;;;1.10;0.50;;;;;;;;;;5141964;27;20370;-55
2021/03/13 02:17:45;;;;;;;6.00;1.23;;;;;;;;;;5135442;27;20118;-55
2021/03/13 02:20:50;;;;;;;0.70;0.50;;;;;;;;;;5064972;27;20156;-53
2021/03/13 02:23:42;;;;;;;0.70;0.40;;;;;;;;;;5042991;28;20037;-57
2021/03/13 02:26:14;;;;;;;1.30;0.53;;;;;;;;;;5036858;28;20495;-55
2021/03/13 02:29:02;;;;;;;2.67;0.70;;;;;;;;;;5111831;27;20031;-55
2021/03/13 02:31:39;;;;;;;4.10;0.73;;;;;;;;;;5137905;27;20056;-56
2021/03/13 02:34:21;;;;;;;1.07;0.43;;;;;;;;;;5136072;27;20034;-55
2021/03/13 02:37:05;;;;;;;3.90;0.90;;;;;;;;;;5137905;27;20031;-56
2021/03/13 02:42:46;;;;;;;3.43;0.90;;;;;;;;;;5104337;27;20102;-57
2021/03/13 02:46:01;;;;;;;;;;;;;;;;;;;;;
2021/03/13 02:48:45;;;;;;;2.27;0.63;;;;;;;;;;5106115;27;20586;-55
2021/03/13 02:51:13;;;;;;;1.40;0.50;;;;;;;;;;5117814;27;20035;-55
2021/03/13 02:53:49;;;;;;;1.90;0.90;;;;;;;;;;5114857;27;20548;-54
2021/03/13 02:56:28;;;;;;;1.73;0.63;;;;;;;;;;5117116;27;20034;-55
2021/03/13 02:59:02;;;;;;;1.90;0.80;;;;;;;;;;5109377;28;20122;-53
2021/03/13 03:01:37;;;;;;;2.40;1.10;;;;;;;;;;5114074;28;20038;-57
2021/03/13 03:07:26;;;;;;;1.73;0.90;;;;;;;;;;5108480;28;20067;-57
2021/03/13 03:10:08;;;;;;;;;;;;;;;;;;;;;
2021/03/13 03:12:35;;;;;;;3.50;0.77;;;;;;;;;;5113919;28;20033;-56
2021/03/13 03:15:22;;;;;;;9.57;0.80;;;;;;;;;;5113479;28;20031;-57
2021/03/13 03:17:49;;;;;;;2.83;1.37;;;;;;;;;;5113896;28;20044;-54
2021/03/13 03:20:31;;;;;;;2.30;1.07;;;;;;;;;;5094498;28;20032;-55
2021/03/13 03:23:07;;;;;;;;;;;;;;;;;;;;;
2021/03/13 03:25:39;;;;;;;2.23;0.93;;;;;;;;;;5114102;28;20042;-57
2021/03/13 03:28:12;;;;;;;5.27;0.70;;;;;;;;;;5113394;28;20027;-54
2021/03/13 03:31:06;;;;;;;1.60;0.53;;;;;;;;;;5094549;28;20097;-55
2021/03/13 03:33:45;;;;;;;2.00;0.80;;;;;;;;;;5113991;28;20035;-54
2021/03/13 03:36:15;;;;;;;5.57;0.87;;;;;;;;;;5124189;28;20039;-56
2021/03/13 03:38:53;;;;;;;3.23;1.27;;;;;;;;;;5135714;28;20079;-54
2021/03/13 03:41:38;;;;;;;2.13;0.70;;;;;;;;;;5134557;28;20070;-55
2021/03/13 03:44:25;;;;;;;1.50;0.40;;;;;;;;;;5135497;28;20015;-54
2021/03/13 03:49:58;;;;;;;3.50;0.83;;;;;;;;;;5133483;27;20031;-55
2021/03/13 03:52:34;;;;;;;2.67;1.03;;;;;;;;;;5138605;27;20495;-56
2021/03/13 03:55:17;;;;;;;;;;;;;;;;;;;;;
2021/03/13 04:01:20;;;;;;;;;;;;;;;;;;;;;
2021/03/13 04:04:36;;;;;;;1.75;0.80;;;;;;;;;;5140352;27;20106;-55
2021/03/13 04:06:45;;;;;;;3.57;1.07;;;;;;;;;;5132949;27;20040;-55
2021/03/13 04:09:18;;;;;;;5.25;0.98;;;;;;;;;;5139332;27;20384;-54
2021/03/13 04:17:44;;;;;;;2.47;0.83;;;;;;;;;;5074141;28;20047;-56
2021/03/13 04:20:11;;;;;;;2.28;0.60;;;;;;;;;;5097346;28;20439;-56
2021/03/13 04:22:59;;;;;;;0.50;0.25;;;;;;;;;;5096337;28;20036;-55
2021/03/13 04:25:35;;;;;;;4.53;0.75;;;;;;;;;;5121380;27;20424;-54
2021/03/13 04:28:40;;;;;;;1.98;0.73;;;;;;;;;;5139449;27;20418;-56
2021/03/13 04:31:21;;;;;;;2.97;1.33;;;;;;;;;;5134022;27;20035;-55
2021/03/13 04:33:51;;;;;;;2.72;0.70;;;;;;;;;;5138461;27;20063;-55
2021/03/13 04:36:32;;;;;;;0.77;0.50;;;;;;;;;;5138366;27;20027;-56
2021/03/13 04:39:04;;;;;;;1.30;0.68;;;;;;;;;;5139389;27;20107;-55
2021/03/13 04:41:57;;;;;;;2.97;0.60;;;;;;;;;;5119118;27;20024;-53
2021/03/13 04:44:41;;;;;;;1.45;0.45;;;;;;;;;;5138407;27;20395;-55
2021/03/13 04:47:15;;;;;;;0.77;0.50;;;;;;;;;;5127643;27;20460;-56
2021/03/13 04:49:48;;;;;;;2.05;0.85;;;;;;;;;;5119298;27;20091;-55
2021/03/13 04:52:51;;;;;;;;;;;;;;;;;;;;;
2021/03/13 04:55:20;;;;;;;0.55;0.30;;;;;;;;;;5136639;27;20095;-55
2021/03/13 04:58:02;;;;;;;2.92;0.38;;;;;;;;;;5137846;27;20030;-53
2021/03/13 05:00:58;;;;;;;0.80;0.40;;;;;;;;;;5130490;27;20079;-56
2021/03/13 05:03:53;;;;;;;3.20;1.00;;;;;;;;;;5138464;27;20015;-55
2021/03/13 05:06:54;;;;;;;4.45;0.55;;;;;;;;;;5138287;27;20031;-56
2021/03/13 05:09:31;;;;;;;;;;;;;;;;;;;;;
2021/03/13 05:12:07;;;;;;;3.08;0.75;;;;;;;;;;5138510;27;20109;-54
2021/03/13 05:14:35;;;;;;;1.80;0.60;;;;;;;;;;5120185;27;20429;-54
2021/03/13 05:17:03;;;;;;;1.13;0.55;;;;;;;;;;5117406;27;20047;-54
2021/03/13 05:19:56;;;;;;;;;;;;;;;;;;;;;
2021/03/13 05:22:38;;;;;;;0.80;0.50;;;;;;;;;;5127199;27;20110;-54
2021/03/13 05:25:39;;;;;;;2.08;0.70;;;;;;;;;;5137270;27;20031;-54
2021/03/13 05:28:27;;;;;;;3.72;0.38;;;;;;;;;;5120166;27;20068;-53
2021/03/13 05:31:10;;;;;;;1.38;0.55;;;;;;;;;;5137780;27;20122;-52
2021/03/13 05:33:54;;;;;;;0.80;0.40;;;;;;;;;;5117722;27;20532;-55
2021/03/13 05:36:22;;;;;;;0.85;0.45;;;;;;;;;;5136681;27;20031;-54
2021/03/13 05:38:57;;;;;;;0.17;0.08;;;;;;;;;;5136635;27;20369;-53
2021/03/13 05:41:36;;;;;;;2.03;0.70;;;;;;;;;;5120431;27;20039;-55
2021/03/13 05:44:04;;;;;;;2.00;0.68;;;;;;;;;;5119213;27;20529;-52
2021/03/13 05:47:05;;;;;;;1.10;0.43;;;;;;;;;;5136492;27;20410;-54
2021/03/13 05:49:39;;;;;;;1.55;0.73;;;;;;;;;;5033990;28;20034;-54
2021/03/13 05:52:28;;;;;;;1.65;0.95;;;;;;;;;;5121441;27;20046;-56
2021/03/13 05:54:58;;;;;;;0.10;0.10;;;;;;;;;;5136674;27;20027;-54
2021/03/13 05:57:34;;;;;;;4.63;1.13;;;;;;;;;;5118567;27;20035;-55
2021/03/13 06:00:29;;;;;;;0.73;0.30;;;;;;;;;;5136751;27;20027;-53
2021/03/13 06:03:01;;;;;;;0.68;0.40;;;;;;;;;;5137102;27;20529;-51
2021/03/13 06:06:01;;;;;;;1.30;1.00;;;;;;;;;;5135721;27;20027;-54
2021/03/13 06:08:31;;;;;;;2.15;0.90;;;;;;;;;;5118708;27;20034;-56
2021/03/13 06:11:06;;;;;;;1.58;0.55;;;;;;;;;;5117730;27;20069;-55
2021/03/13 06:13:38;;;;;;;1.30;0.70;;;;;;;;;;5136477;27;20331;-55
2021/03/13 06:16:22;;;;;;;1.83;0.75;;;;;;;;;;5136696;27;20051;-54
2021/03/13 06:19:27;;;;;;;3.47;0.82;;;;;;;;;;5111708;28;20188;-55
2021/03/13 06:22:00;;;;;;;1.95;0.30;;;;;;;;;;5035186;28;20044;-56
2021/03/13 06:24:41;;;;;;;2.10;0.70;;;;;;;;;;5052859;28;20021;-55
2021/03/13 06:27:29;;;;;;;4.57;1.88;;;;;;;;;;5085893;27;20118;-57
2021/03/13 06:30:10;;;;;;;0.65;0.40;;;;;;;;;;5156914;27;20468;-56
2021/03/13 06:32:45;;;;;;;2.00;0.80;;;;;;;;;;5137936;27;20035;-56
2021/03/13 06:35:32;;;;;;;1.52;0.68;;;;;;;;;;5156224;27;20464;-55
2021/03/13 06:38:02;;;;;;;2.72;0.70;;;;;;;;;;5156815;27;20034;-55
2021/03/13 06:40:36;;;;;;;2.70;0.70;;;;;;;;;;5139433;27;20026;-55
2021/03/13 06:43:20;;;;;;;2.97;0.55;;;;;;;;;;5137838;27;20030;-53
2021/03/13 06:46:15;;;;;;;2.15;0.60;;;;;;;;;;5156525;27;20057;-55
2021/03/13 06:48:59;;;;;;;3.85;0.80;;;;;;;;;;5155317;27;20106;-51
2021/03/13 06:51:42;;;;;;;1.17;0.40;;;;;;;;;;5157384;27;20110;-56
2021/03/13 06:54:26;;;;;;;3.83;0.95;;;;;;;;;;5156680;27;20031;-55
2021/03/13 06:57:23;;;;;;;2.65;0.73;;;;;;;;;;5156419;27;20038;-57
2021/03/13 07:00:13;;;;;;;2.13;1.17;;;;;;;;;;5047885;27;20042;-55
2021/03/13 07:08:45;;;;;;;;;;;;;;;;;;;;;
2021/03/13 07:11:44;;;;;;;;;;;;;;;;;;;;;
2021/03/13 07:14:26;;;;;;;1.02;0.40;;;;;;;;;;5156261;27;20014;-57
2021/03/13 07:16:59;;;;;;;1.63;1.08;;;;;;;;;;5101986;27;20142;-55
2021/03/13 07:19:41;;;;;;;1.30;0.52;;;;;;;;;;5138318;27;20480;-55
2021/03/13 07:22:07;;;;;;;2.85;0.77;;;;;;;;;;5139110;27;20056;-55
2021/03/13 07:25:02;;;;;;;2.22;0.68;;;;;;;;;;5155343;27;20105;-55
2021/03/13 07:27:54;;;;;;;2.53;0.63;;;;;;;;;;5152489;27;20095;-55
2021/03/13 07:30:43;;;;;;;2.00;0.70;;;;;;;;;;5156824;27;20175;-56
2021/03/13 07:33:34;;;;;;;0.70;0.28;;;;;;;;;;5138189;27;20031;-56
2021/03/13 07:36:08;;;;;;;2.53;0.47;;;;;;;;;;5155924;27;20022;-54
2021/03/13 07:39:21;;;;;;;3.63;0.15;;;;;;;;;;5137048;27;20113;-54
2021/03/13 07:42:20;;;;;;;1.63;0.40;;;;;;;;;;5146917;27;20029;-54
2021/03/13 07:44:55;;;;;;;4.40;0.52;;;;;;;;;;5117588;27;20026;-56
2021/03/13 07:47:41;;;;;;;2.30;0.73;;;;;;;;;;5155924;27;20023;-53
2021/03/13 07:50:36;;;;;;;3.22;1.33;;;;;;;;;;5136781;27;20030;-57
2021/03/13 07:53:14;;;;;;;1.48;0.63;;;;;;;;;;5144615;27;20155;-57
2021/03/13 07:56:18;;;;;;;3.33;0.50;;;;;;;;;;5155210;27;20027;-56
2021/03/13 07:59:04;;;;;;;0.28;0.20;;;;;;;;;;5145757;27;20054;-55
2021/03/13 08:01:51;;;;;;;1.60;0.55;;;;;;;;;;5136378;27;20027;-57
2021/03/13 08:04:44;;;;;;;4.78;0.85;;;;;;;;;;5155357;27;20023;-55
2021/03/13 08:07:28;;;;;;;5.68;0.55;;;;;;;;;;5155758;27;20487;-56
2021/03/13 08:09:55;;;;;;;1.75;0.85;;;;;;;;;;5136036;27;20031;-56
2021/03/13 08:12:46;;;;;;;0.68;0.28;;;;;;;;;;5155432;27;20026;-56
2021/03/13 08:15:45;;;;;;;0.77;0.22;;;;;;;;;;5154870;27;20159;-56
2021/03/13 08:18:34;;;;;;;0.50;0.30;;;;;;;;;;5154302;27;20054;-57
2021/03/13 08:21:27;;;;;;;1.17;0.22;;;;;;;;;;5153252;27;20030;-57
2021/03/13 08:24:05;;;;;;;2.00;0.30;;;;;;;;;;5135679;27;20031;-55
2021/03/13 08:26:47;;;;;;;;;;;;;;;;;;;;;
2021/03/13 08:29:40;;;;;;;1.15;0.57;;;;;;;;;;5155408;27;20027;-58
2021/03/13 08:32:12;;;;;;;0.10;0.10;;;;;;;;;;5147750;27;20031;-56
2021/03/13 08:34:45;;;;;;;0.17;0.10;;;;;;;;;;5155051;27;20087;-57
2021/03/13 08:37:41;;;;;;;0.40;0.17;;;;;;;;;;5156680;27;20029;-57
2021/03/13 08:40:27;;;;;;;0.57;0.25;;;;;;;;;;5158057;27;20038;-57
2021/03/13 08:43:00;;;;;;;1.35;0.38;;;;;;;;;;5140475;27;20087;-56
2021/03/13 08:45:53;;;;;;;0.90;0.47;;;;;;;;;;5140484;27;20031;-57
2021/03/13 08:48:46;;;;;;;0.32;0.15;;;;;;;;;;5141045;27;20027;-54
2021/03/13 08:54:44;;;;;;;0.45;0.22;;;;;;;;;;5054292;28;20174;-58
2021/03/13 08:57:33;;;;;;;0.82;0.57;;;;;;;;;;5139341;27;20034;-58
2021/03/13 09:00:09;;;;;;;0.43;0.20;;;;;;;;;;5157522;27;20038;-58
2021/03/13 09:02:47;;;;;;;0.40;0.22;;;;;;;;;;5140182;27;20015;-59
2021/03/13 09:05:24;;;;;;;1.70;0.32;;;;;;;;;;5140281;27;20042;-58
2021/03/13 09:07:58;;;;;;;1.27;0.30;;;;;;;;;;5139580;27;20034;-58
2021/03/13 09:10:29;;;;;;;3.40;0.75;;;;;;;;;;5140550;27;20023;-59
2021/03/13 09:13:04;;;;;;;0.47;0.20;;;;;;;;;;5141105;27;20073;-59
2021/03/13 09:15:42;;;;;;;0.22;0.13;;;;;;;;;;5157603;27;20151;-59
2021/03/13 09:21:12;;;;;;;1.02;0.38;;;;;;;;;;5157729;27;20392;-58
2021/03/13 09:23:47;;;;;;;1.00;0.38;;;;;;;;;;5158448;27;20022;-58
2021/03/13 09:26:31;;;;;;;0.10;0.10;;;;;;;;;;5134400;27;20038;-58
2021/03/13 09:29:21;;;;;;;8.27;0.52;;;;;;;;;;5139443;27;20019;-59
2021/03/13 09:31:56;;;;;;;1.63;0.73;;;;;;;;;;5139314;27;20031;-58
2021/03/13 09:34:52;;;;;;;0.25;0.20;;;;;;;;;;5158050;27;20023;-59
2021/03/13 09:37:20;;;;;;;1.08;0.38;;;;;;;;;;5124240;27;20034;-59
2021/03/13 09:40:06;;;;;;;;;;;;;;;;;;;;;
2021/03/13 09:42:41;;;;;;;0.88;0.28;;;;;;;;;;5141654;27;20053;-58
2021/03/13 09:45:11;;;;;;;1.27;0.30;;;;;;;;;;5138899;27;20069;-55
2021/03/13 09:47:47;;;;;;;0.60;0.32;;;;;;;;;;5156623;27;20479;-55
2021/03/13 09:50:23;;;;;;;0.32;0.20;;;;;;;;;;5138592;27;20018;-56
2021/03/13 09:53:01;;;;;;;0.57;0.20;;;;;;;;;;5157152;27;20027;-54
2021/03/13 09:58:51;;;;;;;;;;;;;;;;;;;;;
2021/03/13 10:01:21;;;;;;;0.65;0.35;;;;;;;;;;5154919;27;20034;-58
2021/03/13 10:03:54;;;;;;;0.25;0.22;;;;;;;;;;5158000;27;20110;-58
2021/03/13 10:09:12;;;;;;;1.73;1.10;;;;;;;;;;5156773;27;20519;-59
2021/03/13 10:11:58;;;;;;;1.35;0.30;;;;;;;;;;5156708;27;20035;-58
2021/03/13 10:14:33;;;;;;;1.65;0.43;;;;;;;;;;5156976;27;20097;-59
2021/03/13 10:17:05;;;;;;;0.20;0.10;;;;;;;;;;5156421;27;20030;-59
2021/03/13 10:19:45;;;;;;;1.83;0.55;;;;;;;;;;5133755;27;20447;-59
2021/03/13 10:25:16;;;;;;;1.23;0.35;;;;;;;;;;5127721;27;20039;-59
2021/03/13 10:27:50;;;;;;;0.00;0.00;;;;;;;;;;5134423;27;20027;-59
2021/03/13 10:30:17;;;;;;;0.93;0.30;;;;;;;;;;5134446;27;20084;-59
2021/03/13 10:32:58;;;;;;;0.63;0.28;;;;;;;;;;5136334;27;20023;-59
2021/03/13 10:35:51;;;;;;;1.00;0.40;;;;;;;;;;5135781;27;20035;-59
2021/03/13 10:38:20;;;;;;;1.58;0.40;;;;;;;;;;5136618;27;20406;-59
2021/03/13 10:41:09;;;;;;;;;;;;;;;;;;;;;
2021/03/13 10:43:40;;;;;;;0.90;0.40;;;;;;;;;;5135682;27;20031;-58
2021/03/13 10:46:44;;;;;;;2.75;0.40;;;;;;;;;;5095810;28;20046;-58
2021/03/13 10:49:34;;;;;;;0.47;0.25;;;;;;;;;;5054967;28;20125;-59
2021/03/13 10:52:06;;;;;;;1.53;0.37;;;;;;;;;;5111663;28;20032;-59
2021/03/13 10:57:24;;;;;;;0.82;0.32;;;;;;;;;;5112256;28;20055;-59
2021/03/13 11:06:00;;;;;;;0.25;0.17;;;;;;;;;;5103748;28;20078;-57
2021/03/13 11:08:39;;;;;;;0.35;0.30;;;;;;;;;;5112295;28;20051;-58
2021/03/13 11:11:13;;;;;;;1.33;0.30;;;;;;;;;;5094779;28;20428;-58
2021/03/13 11:16:32;;;;;;;5.50;0.30;;;;;;;;;;5096196;28;20040;-59
2021/03/13 11:19:15;;;;;;;0.50;0.20;;;;;;;;;;5085439;28;20151;-59
2021/03/13 11:21:46;;;;;;;0.40;0.25;;;;;;;;;;5089276;28;20034;-58
2021/03/13 11:24:16;;;;;;;0.35;0.20;;;;;;;;;;5105234;28;20144;-58
2021/03/13 11:26:55;;;;;;;1.17;0.20;;;;;;;;;;5112707;28;20040;-59
2021/03/13 11:29:34;;;;;;;0.00;0.00;;;;;;;;;;5114921;28;20024;-57
2021/03/13 11:32:11;;;;;;;1.88;0.38;;;;;;;;;;5114238;28;20030;-59
2021/03/13 11:34:44;;;;;;;0.55;0.30;;;;;;;;;;5114790;28;20472;-58
2021/03/13 11:37:10;;;;;;;0.60;0.22;;;;;;;;;;5114282;28;20020;-58
2021/03/13 11:39:36;;;;;;;0.90;0.20;;;;;;;;;;5113050;28;20027;-58
2021/03/13 11:42:27;;;;;;;0.43;0.13;;;;;;;;;;5113703;28;20432;-58
2021/03/13 11:45:13;;;;;;;;;;;;;;;;;;5113511;28;20036;-58
2021/03/13 11:47:41;;;;;;;0.17;0.17;;;;;;;;;;5113569;28;19908;-57
2021/03/13 11:50:17;;;;;;;0.40;0.30;;;;;;;;;;5114148;28;20142;-58
2021/03/13 11:56:03;;;;;;;;;;;;;;;;;;;;;
2021/03/13 11:58:35;;;;;;;2.10;0.47;;;;;;;;;;5114093;28;20019;-58
2021/03/13 12:01:04;;;;;;;0.38;0.10;;;;;;;;;;5114056;28;20027;-59
2021/03/13 12:03:36;;;;;;;0.08;0.03;;;;;;;;;;5114841;28;20020;-59
2021/03/13 12:06:08;;;;;;;0.57;0.20;;;;;;;;;;5111176;28;20044;-57
2021/03/13 12:08:37;;;;;;;0.73;0.40;;;;;;;;;;5114496;28;20043;-59
2021/03/13 12:11:10;;;;;;;0.35;0.13;;;;;;;;;;5112520;28;20102;-58
2021/03/13 12:13:49;;;;;;;0.63;0.13;;;;;;;;;;5117426;28;20085;-57
2021/03/13 12:16:45;;;;;;;;;;;;;;;;;;;;;
2021/03/13 12:19:12;;;;;;;0.43;0.10;;;;;;;;;;5137661;27;20047;-57
2021/03/13 12:21:44;;;;;;;0.52;0.25;;;;;;;;;;5140134;27;20038;-56
2021/03/13 12:24:11;;;;;;;0.38;0.20;;;;;;;;;;5141387;27;20023;-58
2021/03/13 12:26:40;;;;;;;0.30;0.13;;;;;;;;;;5159485;27;20038;-59
2021/03/13 12:29:27;;;;;;;1.35;0.65;;;;;;;;;;5140378;27;20087;-57
2021/03/13 12:31:53;;;;;;;0.47;0.20;;;;;;;;;;5159585;27;20030;-58
2021/03/13 12:34:25;;;;;;;1.00;0.43;;;;;;;;;;5158705;27;20022;-58
2021/03/13 12:36:59;;;;;;;1.85;0.47;;;;;;;;;;5158326;27;20451;-56
2021/03/13 12:39:35;;;;;;;0.98;0.25;;;;;;;;;;5140894;27;20494;-57
2021/03/13 12:42:07;;;;;;;0.88;0.30;;;;;;;;;;5159112;27;20425;-57
2021/03/13 12:44:36;;;;;;;2.10;0.90;;;;;;;;;;5158384;27;20050;-57
2021/03/13 12:47:03;;;;;;;0.20;0.10;;;;;;;;;;5158081;27;20035;-58
2021/03/13 12:49:51;;;;;;;0.32;0.20;;;;;;;;;;5158012;27;20115;-58
2021/03/13 12:52:26;;;;;;;5.03;0.77;;;;;;;;;;5140020;27;20500;-57
2021/03/13 12:55:15;;;;;;;0.20;0.10;;;;;;;;;;5159094;27;20368;-56
2021/03/13 12:58:22;;;;;;;0.75;0.47;;;;;;;;;;5158322;27;20018;-56
2021/03/13 13:01:11;;;;;;;0.47;0.10;;;;;;;;;;5159169;27;20027;-55
2021/03/13 13:03:56;;;;;;;0.57;0.40;;;;;;;;;;5158164;27;20379;-57
2021/03/13 13:09:44;;;;;;;0.68;0.38;;;;;;;;;;5158559;27;20033;-58
2021/03/13 13:12:25;;;;;;;0.60;0.20;;;;;;;;;;5084825;27;20023;-57
2021/03/13 13:15:06;;;;;;;0.40;0.20;;;;;;;;;;5149609;27;20034;-57
2021/03/13 13:17:35;;;;;;;0.98;0.45;;;;;;;;;;5158516;27;20029;-57
2021/03/13 13:20:18;;;;;;;0.15;0.15;;;;;;;;;;5138495;27;20053;-56
2021/03/13 13:22:58;;;;;;;0.57;0.22;;;;;;;;;;5158102;27;20027;-57
2021/03/13 13:25:37;;;;;;;0.30;0.10;;;;;;;;;;5158201;27;20034;-55
2021/03/13 13:28:12;;;;;;;1.23;0.47;;;;;;;;;;5157568;27;20057;-57
2021/03/13 13:30:44;;;;;;;0.03;0.03;;;;;;;;;;5138937;27;20030;-55
2021/03/13 13:33:36;;;;;;;1.65;0.10;;;;;;;;;;5158835;27;20092;-58
2021/03/13 13:36:11;;;;;;;0.17;0.10;;;;;;;;;;5158316;27;20060;-60
2021/03/13 13:39:06;;;;;;;;;;;;;;;;;;;;;
2021/03/13 13:42:04;;;;;;;3.47;0.38;;;;;;;;;;5138921;27;20034;-57
2021/03/13 13:44:42;;;;;;;0.13;0.00;;;;;;;;;;5142230;27;20045;-58
2021/03/13 13:47:14;;;;;;;0.10;0.10;;;;;;;;;;5156830;27;20043;-55
2021/03/13 13:49:50;;;;;;;0.03;0.00;;;;;;;;;;5138886;27;20015;-56
2021/03/13 13:52:17;;;;;;;0.03;0.00;;;;;;;;;;5113240;27;20037;-57
2021/03/13 13:55:02;;;;;;;0.30;0.03;;;;;;;;;;5158063;27;20026;-56
2021/03/13 13:57:37;;;;;;;0.10;0.10;;;;;;;;;;5157333;27;20071;-56
2021/03/13 14:00:23;;;;;;;0.20;0.10;;;;;;;;;;5157944;27;20063;-57
2021/03/13 14:02:55;;;;;;;0.32;0.13;;;;;;;;;;5139140;27;20033;-55
2021/03/13 14:05:44;;;;;;;0.25;0.10;;;;;;;;;;5156472;27;20030;-55
2021/03/13 14:08:29;;;;;;;0.10;0.10;;;;;;;;;;5137896;27;20015;-57
2021/03/13 14:11:11;;;;;;;0.10;0.03;;;;;;;;;;5148738;27;20599;-56
2021/03/13 14:13:44;;;;;;;0.00;0.00;;;;;;;;;;5155988;27;20034;-57
2021/03/13 14:16:24;;;;;;;0.08;0.08;;;;;;;;;;5139270;27;20029;-56
2021/03/13 14:18:50;;;;;;;1.43;0.30;;;;;;;;;;5134451;27;20043;-57
2021/03/13 14:21:56;;;;;;;;;;;;;;;;;;;;;
2021/03/13 14:24:24;;;;;;;0.20;0.10;;;;;;;;;;5132925;27;20031;-57
2021/03/13 14:26:50;;;;;;;0.03;0.00;;;;;;;;;;5134724;27;20114;-56
2021/03/13 14:29:20;;;;;;;0.32;0.10;;;;;;;;;;5135845;27;20425;-56
2021/03/13 14:31:47;;;;;;;0.20;0.10;;;;;;;;;;5136246;27;20024;-58
2021/03/13 14:34:25;;;;;;;0.17;0.05;;;;;;;;;;5134576;27;20023;-58
2021/03/13 14:36:57;;;;;;;1.75;0.22;;;;;;;;;;5136514;27;20027;-57
2021/03/13 14:42:18;;;;;;;0.40;0.20;;;;;;;;;;5129409;27;20380;-56
2021/03/13 14:45:02;;;;;;;0.85;0.28;;;;;;;;;;5136082;27;20333;-57
2021/03/13 14:50:54;;;;;;;4.03;0.35;;;;;;;;;;5132731;27;20381;-57
2021/03/13 14:53:49;;;;;;;0.38;0.30;;;;;;;;;;5135109;27;20023;-57
2021/03/13 14:56:51;;;;;;;0.15;0.05;;;;;;;;;;5133570;27;20019;-57
2021/03/13 14:59:33;;;;;;;0.10;0.10;;;;;;;;;;5135293;27;20033;-57
2021/03/13 15:02:19;;;;;;;3.03;0.52;;;;;;;;;;5135608;27;20023;-55
2021/03/13 15:04:53;;;;;;;0.10;0.05;;;;;;;;;;5134928;27;20027;-57
2021/03/13 15:07:36;;;;;;;0.22;0.15;;;;;;;;;;5133980;27;20071;-57
2021/03/13 15:10:31;;;;;;;0.20;0.10;;;;;;;;;;5133014;27;20410;-56
2021/03/13 15:13:13;;;;;;;0.80;0.20;;;;;;;;;;5105158;27;20039;-57
2021/03/13 15:16:08;;;;;;;3.63;0.40;;;;;;;;;;5135543;27;20444;-58
2021/03/13 15:18:47;;;;;;;1.65;0.43;;;;;;;;;;5136879;27;20019;-57
2021/03/13 15:21:34;;;;;;;0.10;0.10;;;;;;;;;;5131970;27;20039;-56
2021/03/13 15:24:04;;;;;;;0.20;0.10;;;;;;;;;;5135811;27;20027;-56
2021/03/13 15:26:35;;;;;;;0.43;0.10;;;;;;;;;;5133305;27;20039;-56
2021/03/13 15:29:23;;;;;;;0.35;0.10;;;;;;;;;;5133753;27;20011;-55
2021/03/13 15:32:21;;;;;;;0.38;0.20;;;;;;;;;;5135284;27;20022;-57
2021/03/13 15:35:02;;;;;;;1.00;0.20;;;;;;;;;;5134215;27;20494;-57
2021/03/13 15:37:43;;;;;;;0.08;0.05;;;;;;;;;;5134903;27;20376;-55
2021/03/13 15:40:42;;;;;;;0.20;0.10;;;;;;;;;;5135417;28;20041;-57
2021/03/13 15:46:18;;;;;;;3.50;0.27;;;;;;;;;;5135384;27;20456;-54
2021/03/13 15:49:00;;;;;;;;;;;;;;;;;;5137973;27;20031;-57
2021/03/13 15:51:42;;;;;;;0.33;0.17;;;;;;;;;;5140149;27;20399;-57
2021/03/13 15:54:20;;;;;;;0.37;0.10;;;;;;;;;;5137558;27;20031;-57
2021/03/13 15:56:47;;;;;;;0.40;0.10;;;;;;;;;;5138661;27;20024;-55
2021/03/13 15:59:19;;;;;;;0.40;0.23;;;;;;;;;;5138661;27;20486;-56
2021/03/13 16:01:50;;;;;;;0.83;0.30;;;;;;;;;;5138321;27;20038;-57
2021/03/13 16:04:25;;;;;;;1.07;0.50;;;;;;;;;;5139213;27;20015;-56
2021/03/13 16:07:07;;;;;;;0.47;0.30;;;;;;;;;;5138708;27;20119;-57
2021/03/13 16:09:35;;;;;;;0.47;0.30;;;;;;;;;;5139984;27;20019;-56
2021/03/13 16:12:29;;;;;;;0.30;0.10;;;;;;;;;;5139484;27;20024;-57
2021/03/13 16:15:00;;;;;;;0.00;0.00;;;;;;;;;;5102627;27;20033;-57
2021/03/13 16:17:47;;;;;;;0.33;0.17;;;;;;;;;;5137775;27;20405;-57
2021/03/13 16:20:26;;;;;;;1.13;0.28;;;;;;;;;;5136197;27;20039;-57
2021/03/13 16:23:17;;;;;;;0.67;0.33;;;;;;;;;;5137388;27;20027;-55
2021/03/13 16:29:16;;;;;;;0.33;0.20;;;;;;;;;;5138259;27;20096;-58
2021/03/13 16:31:58;;;;;;;1.13;0.47;;;;;;;;;;5137445;27;20023;-57
2021/03/13 16:34:57;;;;;;;;;;;;;;;;;;;;;
2021/03/13 16:37:44;;;;;;;1.07;0.30;;;;;;;;;;5125648;27;20039;-58
2021/03/13 16:40:21;;;;;;;0.47;0.30;;;;;;;;;;5136637;27;20031;-57
2021/03/13 16:48:48;;;;;;;2.42;0.88;;;;;;;;;;5137067;27;20023;-58
2021/03/13 16:51:30;;;;;;;5.30;0.93;;;;;;;;;;5137157;27;20084;-57
2021/03/13 16:54:11;;;;;;;1.35;0.45;;;;;;;;;;5136573;27;20078;-57
2021/03/13 16:56:51;;;;;;;3.13;1.60;;;;;;;;;;5138803;27;20035;-57
2021/03/13 16:59:39;;;;;;;2.17;1.23;;;;;;;;;;5136204;27;20046;-57
2021/03/13 17:02:12;;;;;;;1.20;0.50;;;;;;;;;;5137308;27;20023;-58
2021/03/13 17:04:44;;;;;;;2.03;1.00;;;;;;;;;;5136658;27;20405;-58
2021/03/13 17:07:29;;;;;;;0.40;0.20;;;;;;;;;;5131403;27;20043;-58
2021/03/13 17:09:55;;;;;;;0.70;0.40;;;;;;;;;;5137959;27;20031;-58
2021/03/13 17:12:27;;;;;;;1.93;0.87;;;;;;;;;;5137174;27;20042;-57
2021/03/13 17:15:06;;;;;;;1.27;0.70;;;;;;;;;;5136767;27;20360;-57
2021/03/13 17:17:53;;;;;;;2.27;0.87;;;;;;;;;;5137595;27;20025;-58
2021/03/13 17:20:25;;;;;;;0.70;0.43;;;;;;;;;;5144109;27;20039;-58
2021/03/13 17:31:34;;;;;;;1.03;0.70;;;;;;;;;;5157863;27;20111;-57
2021/03/13 17:34:17;;;;;;;4.70;2.53;;;;;;;;;;5128857;27;20113;-58
2021/03/13 17:36:52;;;;;;;3.13;1.80;;;;;;;;;;5157861;27;20034;-58
2021/03/13 17:39:33;;;;;;;4.50;2.93;;;;;;;;;;5138824;27;20477;-58
2021/03/13 17:42:10;;;;;;;3.15;1.17;;;;;;;;;;5157669;27;20102;-56
2021/03/13 17:45:02;;;;;;;1.23;0.70;;;;;;;;;;5138900;27;20022;-56
2021/03/13 17:47:33;;;;;;;;;;;;;;;;;;5157701;27;20031;-57
2021/03/13 17:50:12;;;;;;;2.87;0.50;;;;;;;;;;5157142;27;19906;-57
2021/03/13 17:52:49;;;;;;;1.30;0.60;;;;;;;;;;5157706;27;20114;-58
2021/03/13 17:55:24;;;;;;;2.43;0.43;;;;;;;;;;5156900;27;20022;-58
2021/03/13 17:58:14;;;;;;;1.90;1.00;;;;;;;;;;5157176;27;20109;-57
2021/03/13 18:00:56;;;;;;;0.97;0.50;;;;;;;;;;5143325;27;20031;-58
2021/03/13 18:03:31;;;;;;;2.53;0.70;;;;;;;;;;5138024;27;20044;-58
2021/03/13 18:06:18;;;;;;;2.37;0.80;;;;;;;;;;5149059;27;20046;-58
2021/03/13 18:09:00;;;;;;;2.13;0.77;;;;;;;;;;5137838;27;20555;-58
2021/03/13 18:11:56;;;;;;;0.73;0.47;;;;;;;;;;5157125;27;20498;-56